sensor_id;sensor_type;location;lat;lon;timestamp;pressure;altitude;pressure_sealevel;temperature;humidity
84795;BME280;75026;49.184;16.564;2024-02-14T00:03:40;99278.50;;;19.85;52.66
84795;BME280;75026;49.184;16.564;2024-02-14T00:08:41;99279.34;;;19.82;52.76
84795;BME280;75026;49.184;16.564;2024-02-14T00:13:42;99271.84;;;19.79;52.68
84795;BME280;75026;49.184;16.564;2024-02-14T00:18:43;99277.44;;;19.79;52.64
84795;BME280;75026;49.184;16.564;2024-02-14T00:23:44;99273.81;;;19.79;52.56
84795;BME280;75026;49.184;16.564;2024-02-14T00:28:44;99280.22;;;19.79;52.47
84795;BME280;75026;49.184;16.564;2024-02-14T00:33:45;99274.69;;;19.76;52.50
84795;BME280;75026;49.184;16.564;2024-02-14T00:38:46;99265.94;;;19.74;52.52
84795;BME280;75026;49.184;16.564;2024-02-14T00:43:47;99270.75;;;19.73;52.40
84795;BME280;75026;49.184;16.564;2024-02-14T00:48:48;99279.63;;;19.68;52.49
84795;BME280;75026;49.184;16.564;2024-02-14T00:53:49;99280.81;;;19.67;52.61
84795;BME280;75026;49.184;16.564;2024-02-14T00:58:49;99270.06;;;19.66;52.42
84795;BME280;75026;49.184;16.564;2024-02-14T01:03:50;99259.78;;;19.59;52.54
84795;BME280;75026;49.184;16.564;2024-02-14T01:08:51;99258.22;;;19.58;52.61
84795;BME280;75026;49.184;16.564;2024-02-14T01:13:52;99263.13;;;19.50;52.62
84795;BME280;75026;49.184;16.564;2024-02-14T01:18:53;99248.72;;;19.52;52.67
84795;BME280;75026;49.184;16.564;2024-02-14T01:23:54;99271.91;;;19.49;52.81
84795;BME280;75026;49.184;16.564;2024-02-14T01:28:55;99264.47;;;19.42;53.07
84795;BME280;75026;49.184;16.564;2024-02-14T01:33:56;99268.16;;;19.35;53.24
84795;BME280;75026;49.184;16.564;2024-02-14T01:38:57;99269.81;;;19.29;53.15
84795;BME280;75026;49.184;16.564;2024-02-14T01:43:58;99267.03;;;19.29;53.17
84795;BME280;75026;49.184;16.564;2024-02-14T01:49:00;99271.88;;;19.25;53.26
84795;BME280;75026;49.184;16.564;2024-02-14T01:54:02;99264.34;;;19.22;53.27
84795;BME280;75026;49.184;16.564;2024-02-14T01:59:03;99269.94;;;19.22;53.42
84795;BME280;75026;49.184;16.564;2024-02-14T02:04:06;99269.59;;;19.20;53.37
84795;BME280;75026;49.184;16.564;2024-02-14T02:09:07;99277.22;;;19.16;53.24
84795;BME280;75026;49.184;16.564;2024-02-14T02:14:08;99273.63;;;19.16;53.29
84795;BME280;75026;49.184;16.564;2024-02-14T02:19:09;99279.56;;;19.18;53.44
84795;BME280;75026;49.184;16.564;2024-02-14T02:24:10;99275.94;;;19.21;52.90
84795;BME280;75026;49.184;16.564;2024-02-14T02:29:11;99280.22;;;19.29;52.83
84795;BME280;75026;49.184;16.564;2024-02-14T02:34:12;99287.63;;;19.39;52.68
84795;BME280;75026;49.184;16.564;2024-02-14T02:39:13;99289.44;;;19.49;52.27
84795;BME280;75026;49.184;16.564;2024-02-14T02:44:14;99284.03;;;19.66;51.88
84795;BME280;75026;49.184;16.564;2024-02-14T02:49:15;99288.97;;;19.81;51.69
84795;BME280;75026;49.184;16.564;2024-02-14T02:54:16;99295.53;;;19.95;51.36
84795;BME280;75026;49.184;16.564;2024-02-14T02:59:17;99289.31;;;20.07;51.35
84795;BME280;75026;49.184;16.564;2024-02-14T03:04:18;99281.13;;;20.16;51.23
84795;BME280;75026;49.184;16.564;2024-02-14T03:09:19;99286.91;;;20.29;51.02
84795;BME280;75026;49.184;16.564;2024-02-14T03:14:20;99278.38;;;20.36;51.04
84795;BME280;75026;49.184;16.564;2024-02-14T03:19:20;99288.63;;;20.43;50.87
84795;BME280;75026;49.184;16.564;2024-02-14T03:24:25;99290.94;;;20.48;50.99
84795;BME280;75026;49.184;16.564;2024-02-14T03:29:26;99295.25;;;20.52;50.90
84795;BME280;75026;49.184;16.564;2024-02-14T03:34:27;99295.63;;;20.54;50.94
84795;BME280;75026;49.184;16.564;2024-02-14T03:39:30;99300.00;;;20.55;50.82
84795;BME280;75026;49.184;16.564;2024-02-14T03:44:31;99297.97;;;20.56;50.97
84795;BME280;75026;49.184;16.564;2024-02-14T03:49:32;99300.06;;;20.52;50.89
84795;BME280;75026;49.184;16.564;2024-02-14T03:54:33;99302.84;;;20.52;50.93
84795;BME280;75026;49.184;16.564;2024-02-14T03:59:38;99308.06;;;20.50;51.01
84795;BME280;75026;49.184;16.564;2024-02-14T04:04:42;99305.69;;;20.48;51.16
84795;BME280;75026;49.184;16.564;2024-02-14T04:09:43;99307.00;;;20.44;51.00
84795;BME280;75026;49.184;16.564;2024-02-14T04:14:43;99309.41;;;20.42;51.06
84795;BME280;75026;49.184;16.564;2024-02-14T04:19:44;99311.88;;;20.40;51.07
84795;BME280;75026;49.184;16.564;2024-02-14T04:24:45;99313.94;;;20.36;51.32
84795;BME280;75026;49.184;16.564;2024-02-14T04:29:46;99309.19;;;20.32;51.19
84795;BME280;75026;49.184;16.564;2024-02-14T04:34:48;99314.47;;;20.27;51.23
84795;BME280;75026;49.184;16.564;2024-02-14T04:39:49;99315.34;;;20.24;51.34
84795;BME280;75026;49.184;16.564;2024-02-14T04:44:50;99306.66;;;20.18;51.37
84795;BME280;75026;49.184;16.564;2024-02-14T04:49:51;99299.91;;;20.16;51.64
84795;BME280;75026;49.184;16.564;2024-02-14T04:54:52;99316.75;;;20.12;51.43
84795;BME280;75026;49.184;16.564;2024-02-14T04:59:52;99300.94;;;20.05;51.51
84795;BME280;75026;49.184;16.564;2024-02-14T05:04:54;99301.00;;;20.02;51.71
84795;BME280;75026;49.184;16.564;2024-02-14T05:09:55;99307.78;;;20.01;51.50
84795;BME280;75026;49.184;16.564;2024-02-14T05:14:57;99309.84;;;19.97;51.75
84795;BME280;75026;49.184;16.564;2024-02-14T05:19:58;99313.47;;;19.94;51.62
84795;BME280;75026;49.184;16.564;2024-02-14T05:24:58;99321.13;;;19.90;51.76
84795;BME280;75026;49.184;16.564;2024-02-14T05:30:00;99320.06;;;19.83;51.88
84795;BME280;75026;49.184;16.564;2024-02-14T05:35:01;99305.72;;;19.81;51.87
84795;BME280;75026;49.184;16.564;2024-02-14T05:40:06;99309.34;;;19.78;51.94
84795;BME280;75026;49.184;16.564;2024-02-14T05:45:07;99307.66;;;19.84;51.68
84795;BME280;75026;49.184;16.564;2024-02-14T05:50:10;99309.91;;;19.93;51.24
84795;BME280;75026;49.184;16.564;2024-02-14T05:55:12;99300.50;;;20.07;51.01
84795;BME280;75026;49.184;16.564;2024-02-14T06:00:12;99293.13;;;20.17;50.86
84795;BME280;75026;49.184;16.564;2024-02-14T06:05:14;99299.72;;;20.26;50.89
84795;BME280;75026;49.184;16.564;2024-02-14T06:10:15;99303.94;;;20.34;50.74
84795;BME280;75026;49.184;16.564;2024-02-14T06:15:16;99311.88;;;20.40;50.55
84795;BME280;75026;49.184;16.564;2024-02-14T06:20:17;99316.50;;;20.46;50.61
84795;BME280;75026;49.184;16.564;2024-02-14T06:25:18;99329.28;;;20.47;50.63
84795;BME280;75026;49.184;16.564;2024-02-14T06:30:18;99330.81;;;20.52;50.42
84795;BME280;75026;49.184;16.564;2024-02-14T06:35:19;99331.66;;;20.49;50.66
84795;BME280;75026;49.184;16.564;2024-02-14T06:40:22;99335.63;;;20.51;50.60
84795;BME280;75026;49.184;16.564;2024-02-14T06:45:23;99340.78;;;20.53;50.57
84795;BME280;75026;49.184;16.564;2024-02-14T06:50:23;99342.00;;;20.52;50.56
84795;BME280;75026;49.184;16.564;2024-02-14T06:55:29;99350.84;;;20.50;50.66
84795;BME280;75026;49.184;16.564;2024-02-14T07:00:33;99347.22;;;20.50;50.77
84795;BME280;75026;49.184;16.564;2024-02-14T07:05:34;99355.63;;;20.50;50.68
84795;BME280;75026;49.184;16.564;2024-02-14T07:10:35;99358.03;;;20.48;50.66
84795;BME280;75026;49.184;16.564;2024-02-14T07:15:35;99366.06;;;20.46;50.65
84795;BME280;75026;49.184;16.564;2024-02-14T07:20:36;99371.38;;;20.40;50.88
84795;BME280;75026;49.184;16.564;2024-02-14T07:25:37;99363.03;;;20.37;50.72
84795;BME280;75026;49.184;16.564;2024-02-14T07:30:38;99368.56;;;20.40;50.89
84795;BME280;75026;49.184;16.564;2024-02-14T07:35:39;99379.88;;;20.33;50.78
84795;BME280;75026;49.184;16.564;2024-02-14T07:40:40;99369.50;;;20.33;50.85
84795;BME280;75026;49.184;16.564;2024-02-14T07:45:42;99370.72;;;20.32;50.97
84795;BME280;75026;49.184;16.564;2024-02-14T07:50:43;99382.31;;;20.31;50.90
84795;BME280;75026;49.184;16.564;2024-02-14T07:55:43;99377.53;;;20.31;50.82
84795;BME280;75026;49.184;16.564;2024-02-14T08:00:44;99379.16;;;20.29;51.04
84795;BME280;75026;49.184;16.564;2024-02-14T08:05:46;99389.91;;;20.30;50.89
84795;BME280;75026;49.184;16.564;2024-02-14T08:10:47;99385.16;;;20.27;50.91
84795;BME280;75026;49.184;16.564;2024-02-14T08:15:48;99382.38;;;20.27;50.99
84795;BME280;75026;49.184;16.564;2024-02-14T08:20:50;99387.13;;;20.30;50.90
84795;BME280;75026;49.184;16.564;2024-02-14T08:25:51;99383.13;;;20.31;51.02
84795;BME280;75026;49.184;16.564;2024-02-14T08:30:52;99378.38;;;20.28;51.08
84795;BME280;75026;49.184;16.564;2024-02-14T08:35:53;99389.56;;;20.28;50.91
84795;BME280;75026;49.184;16.564;2024-02-14T08:40:57;99395.50;;;20.30;51.10
84795;BME280;75026;49.184;16.564;2024-02-14T08:45:58;99391.13;;;20.29;50.97
84795;BME280;75026;49.184;16.564;2024-02-14T08:50:59;99394.31;;;20.31;50.99
84795;BME280;75026;49.184;16.564;2024-02-14T08:56:00;99388.72;;;20.31;51.04
84795;BME280;75026;49.184;16.564;2024-02-14T09:01:01;99388.72;;;20.31;50.97
84795;BME280;75026;49.184;16.564;2024-02-14T09:06:03;99393.06;;;20.32;50.99
84795;BME280;75026;49.184;16.564;2024-02-14T09:11:05;99397.09;;;20.31;50.98
84795;BME280;75026;49.184;16.564;2024-02-14T09:16:07;99395.88;;;20.32;50.87
84795;BME280;75026;49.184;16.564;2024-02-14T09:21:08;99390.28;;;20.32;50.94
84795;BME280;75026;49.184;16.564;2024-02-14T09:26:09;99395.88;;;20.32;50.87
84795;BME280;75026;49.184;16.564;2024-02-14T09:31:10;99398.22;;;20.34;50.95
84795;BME280;75026;49.184;16.564;2024-02-14T09:36:12;99400.69;;;20.32;50.93
84795;BME280;75026;49.184;16.564;2024-02-14T09:41:22;99401.47;;;20.32;50.93
84795;BME280;75026;49.184;16.564;2024-02-14T09:46:24;99397.81;;;20.36;51.02
84795;BME280;75026;49.184;16.564;2024-02-14T09:51:26;99394.22;;;20.35;50.87
84795;BME280;75026;49.184;16.564;2024-02-14T09:56:28;99393.44;;;20.34;50.98
84795;BME280;75026;49.184;16.564;2024-02-14T10:01:29;99392.56;;;20.38;51.02
84795;BME280;75026;49.184;16.564;2024-02-14T10:06:30;99386.63;;;20.36;51.07
84795;BME280;75026;49.184;16.564;2024-02-14T10:11:31;99378.97;;;20.40;51.05
84795;BME280;75026;49.184;16.564;2024-02-14T10:16:34;99358.69;;;20.36;50.98
84795;BME280;75026;49.184;16.564;2024-02-14T10:21:36;99351.84;;;20.37;50.98
84795;BME280;75026;49.184;16.564;2024-02-14T10:26:37;99363.91;;;20.33;51.06
84795;BME280;75026;49.184;16.564;2024-02-14T10:31:40;99360.59;;;20.39;50.99
84795;BME280;75026;49.184;16.564;2024-02-14T10:36:42;99350.28;;;20.36;51.13
84795;BME280;75026;49.184;16.564;2024-02-14T10:41:44;99354.66;;;20.37;51.01
84795;BME280;75026;49.184;16.564;2024-02-14T10:46:46;99341.03;;;20.39;50.99
84795;BME280;75026;49.184;16.564;2024-02-14T10:51:48;99326.25;;;20.38;50.91
84795;BME280;75026;49.184;16.564;2024-02-14T10:56:50;99324.63;;;20.41;51.03
84795;BME280;75026;49.184;16.564;2024-02-14T11:01:53;99319.41;;;20.43;50.90
84795;BME280;75026;49.184;16.564;2024-02-14T11:06:54;99327.78;;;20.43;51.07
84795;BME280;75026;49.184;16.564;2024-02-14T11:12:01;99316.94;;;20.45;50.98
84795;BME280;75026;49.184;16.564;2024-02-14T11:17:03;99312.94;;;20.46;50.97
84795;BME280;75026;49.184;16.564;2024-02-14T11:22:18;99307.00;;;20.44;50.88
84795;BME280;75026;49.184;16.564;2024-02-14T11:27:19;99308.13;;;20.46;51.01
84795;BME280;75026;49.184;16.564;2024-02-14T11:32:22;99309.34;;;20.45;51.04
84795;BME280;75026;49.184;16.564;2024-02-14T11:37:29;99304.53;;;20.46;50.89
84795;BME280;75026;49.184;16.564;2024-02-14T11:42:31;99300.94;;;20.45;51.03
84795;BME280;75026;49.184;16.564;2024-02-14T11:47:32;99297.81;;;20.43;50.98
84795;BME280;75026;49.184;16.564;2024-02-14T11:52:33;99300.63;;;20.43;51.05
84795;BME280;75026;49.184;16.564;2024-02-14T11:57:35;99302.19;;;20.44;51.10
84795;BME280;75026;49.184;16.564;2024-02-14T12:02:36;99303.03;;;20.41;50.96
84795;BME280;75026;49.184;16.564;2024-02-14T12:07:38;99307.06;;;20.40;51.16
84795;BME280;75026;49.184;16.564;2024-02-14T12:12:39;99305.41;;;20.43;51.11
84795;BME280;75026;49.184;16.564;2024-02-14T12:17:39;99286.69;;;20.40;51.09
84795;BME280;75026;49.184;16.564;2024-02-14T12:22:40;99267.97;;;20.37;51.06
84795;BME280;75026;49.184;16.564;2024-02-14T12:27:41;99269.53;;;20.38;51.30
84795;BME280;75026;49.184;16.564;2024-02-14T12:32:42;99273.13;;;20.38;51.19
84795;BME280;75026;49.184;16.564;2024-02-14T12:37:43;99272.28;;;20.41;51.18
84795;BME280;75026;49.184;16.564;2024-02-14T12:42:43;99275.84;;;20.42;51.20
84795;BME280;75026;49.184;16.564;2024-02-14T12:47:44;99275.94;;;20.38;51.14
84795;BME280;75026;49.184;16.564;2024-02-14T12:52:46;99262.38;;;20.37;51.25
84795;BME280;75026;49.184;16.564;2024-02-14T12:57:46;99264.41;;;20.36;51.09
84795;BME280;75026;49.184;16.564;2024-02-14T13:02:49;99264.75;;;20.38;51.07
84795;BME280;75026;49.184;16.564;2024-02-14T13:07:49;99259.94;;;20.39;51.08
84795;BME280;75026;49.184;16.564;2024-02-14T13:12:51;99250.75;;;20.38;51.12
84795;BME280;75026;49.184;16.564;2024-02-14T13:17:52;99258.72;;;20.40;51.23
84795;BME280;75026;49.184;16.564;2024-02-14T13:22:52;99254.34;;;20.39;51.14
84795;BME280;75026;49.184;16.564;2024-02-14T13:27:53;99248.75;;;20.39;51.09
84795;BME280;75026;49.184;16.564;2024-02-14T13:32:55;99247.56;;;20.40;51.18
84795;BME280;75026;49.184;16.564;2024-02-14T13:37:56;99245.94;;;20.39;51.05
84795;BME280;75026;49.184;16.564;2024-02-14T13:42:57;99240.72;;;20.41;51.16
84795;BME280;75026;49.184;16.564;2024-02-14T13:48:03;99239.22;;;20.36;51.04
84795;BME280;75026;49.184;16.564;2024-02-14T13:53:08;99223.25;;;20.37;51.15
84795;BME280;75026;49.184;16.564;2024-02-14T13:58:09;99228.84;;;20.37;51.19
84795;BME280;75026;49.184;16.564;2024-02-14T14:03:15;99228.41;;;20.18;51.76
84795;BME280;75026;49.184;16.564;2024-02-14T14:08:18;99229.69;;;20.33;51.17
84795;BME280;75026;49.184;16.564;2024-02-14T14:13:19;99234.06;;;20.34;51.21
84795;BME280;75026;49.184;16.564;2024-02-14T14:18:19;99218.88;;;20.36;51.34
84795;BME280;75026;49.184;16.564;2024-02-14T14:23:20;99220.06;;;20.34;51.29
84795;BME280;75026;49.184;16.564;2024-02-14T14:28:21;99219.38;;;20.30;51.29
84795;BME280;75026;49.184;16.564;2024-02-14T14:33:25;99228.91;;;20.33;51.37
84795;BME280;75026;49.184;16.564;2024-02-14T14:38:26;99225.31;;;20.32;51.37
84795;BME280;75026;49.184;16.564;2024-02-14T14:43:27;99218.50;;;20.33;51.31
84795;BME280;75026;49.184;16.564;2024-02-14T14:48:28;99219.72;;;20.32;51.25
84795;BME280;75026;49.184;16.564;2024-02-14T14:53:29;99216.16;;;20.32;51.32
84795;BME280;75026;49.184;16.564;2024-02-14T14:58:30;99219.38;;;20.30;51.25
84795;BME280;75026;49.184;16.564;2024-02-14T15:03:34;99221.75;;;20.32;51.26
84795;BME280;75026;49.184;16.564;2024-02-14T15:08:35;99210.56;;;20.32;51.23
84795;BME280;75026;49.184;16.564;2024-02-14T15:13:36;99212.19;;;20.29;51.43
84795;BME280;75026;49.184;16.564;2024-02-14T15:18:37;99213.34;;;20.32;51.25
84795;BME280;75026;49.184;16.564;2024-02-14T15:23:38;99208.56;;;20.32;51.30
84795;BME280;75026;49.184;16.564;2024-02-14T15:28:38;99215.38;;;20.31;51.28
84795;BME280;75026;49.184;16.564;2024-02-14T15:33:45;99213.00;;;20.30;51.24
84795;BME280;75026;49.184;16.564;2024-02-14T15:38:46;99213.00;;;20.30;51.32
84795;BME280;75026;49.184;16.564;2024-02-14T15:43:47;99215.38;;;20.31;51.33
84795;BME280;75026;49.184;16.564;2024-02-14T15:48:48;99206.97;;;20.31;51.33
84795;BME280;75026;49.184;16.564;2024-02-14T15:53:49;99213.34;;;20.32;51.28
84795;BME280;75026;49.184;16.564;2024-02-14T15:58:49;99215.00;;;20.29;51.27
84795;BME280;75026;49.184;16.564;2024-02-14T16:03:50;99217.78;;;20.29;51.29
84795;BME280;75026;49.184;16.564;2024-02-14T16:08:51;99217.34;;;20.31;51.34
84795;BME280;75026;49.184;16.564;2024-02-14T16:13:55;99217.34;;;20.31;51.43
84795;BME280;75026;49.184;16.564;2024-02-14T16:18:56;99224.63;;;20.28;51.42
84795;BME280;75026;49.184;16.564;2024-02-14T16:23:59;99225.75;;;20.31;51.32
84795;BME280;75026;49.184;16.564;2024-02-14T16:29:01;99226.19;;;20.29;51.33
84795;BME280;75026;49.184;16.564;2024-02-14T16:34:02;99244.19;;;20.28;51.23
84795;BME280;75026;49.184;16.564;2024-02-14T16:39:03;99239.78;;;20.27;51.39
84795;BME280;75026;49.184;16.564;2024-02-14T16:44:06;99240.16;;;20.29;51.27
84795;BME280;75026;49.184;16.564;2024-02-14T16:49:07;99238.59;;;20.28;51.56
84795;BME280;75026;49.184;16.564;2024-02-14T16:54:08;99235.78;;;20.28;51.36
84795;BME280;75026;49.184;16.564;2024-02-14T16:59:08;99246.19;;;20.28;51.26
84795;BME280;75026;49.184;16.564;2024-02-14T17:04:09;99241.81;;;20.27;51.35
84795;BME280;75026;49.184;16.564;2024-02-14T17:09:10;99242.59;;;20.27;51.49
84795;BME280;75026;49.184;16.564;2024-02-14T17:14:12;99253.75;;;20.27;51.53
84795;BME280;75026;49.184;16.564;2024-02-14T17:19:15;99249.78;;;20.28;51.34
84795;BME280;75026;49.184;16.564;2024-02-14T17:24:17;99250.56;;;20.29;51.43
84795;BME280;75026;49.184;16.564;2024-02-14T17:29:19;99257.72;;;20.30;51.33
84795;BME280;75026;49.184;16.564;2024-02-14T17:34:20;99260.09;;;20.31;51.40
84795;BME280;75026;49.184;16.564;2024-02-14T17:39:21;99257.72;;;20.30;51.32
84795;BME280;75026;49.184;16.564;2024-02-14T17:44:21;99266.09;;;20.30;51.37
84795;BME280;75026;49.184;16.564;2024-02-14T17:49:22;99267.34;;;20.29;51.68
84795;BME280;75026;49.184;16.564;2024-02-14T17:54:24;99272.84;;;20.32;51.48
84795;BME280;75026;49.184;16.564;2024-02-14T17:59:24;99266.88;;;20.30;51.39
84795;BME280;75026;49.184;16.564;2024-02-14T18:04:25;99252.91;;;20.30;51.41
84795;BME280;75026;49.184;16.564;2024-02-14T18:09:26;99250.91;;;20.31;51.42
84795;BME280;75026;49.184;16.564;2024-02-14T18:14:28;99250.13;;;20.30;51.57
84795;BME280;75026;49.184;16.564;2024-02-14T18:19:29;99251.28;;;20.33;51.47
84795;BME280;75026;49.184;16.564;2024-02-14T18:24:30;99255.28;;;20.32;51.52
84795;BME280;75026;49.184;16.564;2024-02-14T18:29:30;99240.16;;;20.29;51.63
84795;BME280;75026;49.184;16.564;2024-02-14T18:34:31;99249.00;;;20.28;51.56
84795;BME280;75026;49.184;16.564;2024-02-14T18:39:33;99252.19;;;20.26;51.49
84795;BME280;75026;49.184;16.564;2024-02-14T18:44:33;99245.03;;;20.25;51.41
84795;BME280;75026;49.184;16.564;2024-02-14T18:49:34;99259.00;;;20.25;51.74
84795;BME280;75026;49.184;16.564;2024-02-14T18:54:36;99260.25;;;20.24;51.58
84795;BME280;75026;49.184;16.564;2024-02-14T18:59:41;99255.00;;;20.26;51.62
84795;BME280;75026;49.184;16.564;2024-02-14T19:04:44;99251.84;;;20.24;51.73
84795;BME280;75026;49.184;16.564;2024-02-14T19:09:45;99255.00;;;20.26;51.47
84795;BME280;75026;49.184;16.564;2024-02-14T19:14:46;99250.63;;;20.25;51.59
84795;BME280;75026;49.184;16.564;2024-02-14T19:19:49;99269.75;;;20.27;51.72
84795;BME280;75026;49.184;16.564;2024-02-14T19:24:50;99264.94;;;20.27;51.44
84795;BME280;75026;49.184;16.564;2024-02-14T19:29:51;99262.53;;;20.29;51.44
84795;BME280;75026;49.184;16.564;2024-02-14T19:34:52;99274.09;;;20.31;51.45
84795;BME280;75026;49.184;16.564;2024-02-14T19:39:53;99274.50;;;20.30;51.65
84795;BME280;75026;49.184;16.564;2024-02-14T19:44:53;99276.06;;;20.31;51.43
84795;BME280;75026;49.184;16.564;2024-02-14T19:49:54;99276.44;;;20.33;51.38
84795;BME280;75026;49.184;16.564;2024-02-14T19:54:55;99264.09;;;20.30;51.61
84795;BME280;75026;49.184;16.564;2024-02-14T19:59:57;99262.47;;;20.33;51.44
84795;BME280;75026;49.184;16.564;2024-02-14T20:05:05;99262.47;;;20.33;51.51
84795;BME280;75026;49.184;16.564;2024-02-14T20:10:09;99266.41;;;20.36;51.48
84795;BME280;75026;49.184;16.564;2024-02-14T20:15:10;99255.22;;;20.36;51.43
84795;BME280;75026;49.184;16.564;2024-02-14T20:20:13;99261.66;;;20.32;51.44
84795;BME280;75026;49.184;16.564;2024-02-14T20:25:14;99264.41;;;20.36;51.51
84795;BME280;75026;49.184;16.564;2024-02-14T20:30:15;99262.00;;;20.34;51.60
84795;BME280;75026;49.184;16.564;2024-02-14T20:35:17;99267.59;;;20.34;51.62
84795;BME280;75026;49.184;16.564;2024-02-14T20:40:18;99270.41;;;20.34;51.48
84795;BME280;75026;49.184;16.564;2024-02-14T20:45:18;99260.81;;;20.36;51.39
84795;BME280;75026;49.184;16.564;2024-02-14T20:50:20;99265.59;;;20.35;51.41
84795;BME280;75026;49.184;16.564;2024-02-14T20:55:21;99273.56;;;20.37;51.61
84795;BME280;75026;49.184;16.564;2024-02-14T21:00:22;99272.00;;;20.36;51.23
84795;BME280;75026;49.184;16.564;2024-02-14T21:05:23;99269.63;;;20.34;51.51
84795;BME280;75026;49.184;16.564;2024-02-14T21:10:26;99265.59;;;20.35;51.62
84795;BME280;75026;49.184;16.564;2024-02-14T21:15:28;99266.03;;;20.33;51.41
84795;BME280;75026;49.184;16.564;2024-02-14T21:20:29;99269.63;;;20.34;51.39
84795;BME280;75026;49.184;16.564;2024-02-14T21:25:31;99260.81;;;20.36;51.47
84795;BME280;75026;49.184;16.564;2024-02-14T21:30:32;99265.69;;;20.31;51.60
84795;BME280;75026;49.184;16.564;2024-02-14T21:35:32;99260.00;;;20.35;51.46
84795;BME280;75026;49.184;16.564;2024-02-14T21:40:36;99259.22;;;20.34;51.61
84795;BME280;75026;49.184;16.564;2024-02-14T21:45:37;99256.41;;;20.34;51.53
84795;BME280;75026;49.184;16.564;2024-02-14T21:50:38;99267.25;;;20.32;51.59
84795;BME280;75026;49.184;16.564;2024-02-14T21:55:39;99260.09;;;20.31;51.67
84795;BME280;75026;49.184;16.564;2024-02-14T22:00:40;99267.25;;;20.32;51.53
84795;BME280;75026;49.184;16.564;2024-02-14T22:05:41;99265.69;;;20.31;51.66
84795;BME280;75026;49.184;16.564;2024-02-14T22:10:43;99268.13;;;20.29;51.74
84795;BME280;75026;49.184;16.564;2024-02-14T22:15:44;99272.91;;;20.29;51.58
84795;BME280;75026;49.184;16.564;2024-02-14T22:20:46;99271.34;;;20.28;51.67
84795;BME280;75026;49.184;16.564;2024-02-14T22:25:49;99280.16;;;20.26;51.62
84795;BME280;75026;49.184;16.564;2024-02-14T22:30:49;99277.88;;;20.21;51.87
84795;BME280;75026;49.184;16.564;2024-02-14T22:35:50;99278.72;;;20.18;51.93
84795;BME280;75026;49.184;16.564;2024-02-14T22:40:51;99275.53;;;20.16;51.77
84795;BME280;75026;49.184;16.564;2024-02-14T22:45:52;99264.03;;;20.14;51.92
84795;BME280;75026;49.184;16.564;2024-02-14T22:50:53;99271.69;;;20.10;52.09
84795;BME280;75026;49.184;16.564;2024-02-14T22:55:54;99275.34;;;20.07;51.94
84795;BME280;75026;49.184;16.564;2024-02-14T23:00:55;99271.81;;;20.03;51.98
84795;BME280;75026;49.184;16.564;2024-02-14T23:05:56;99280.25;;;19.99;52.10
84795;BME280;75026;49.184;16.564;2024-02-14T23:10:57;99279.47;;;19.99;52.08
84795;BME280;75026;49.184;16.564;2024-02-14T23:15:58;99278.75;;;19.95;52.18
84795;BME280;75026;49.184;16.564;2024-02-14T23:20:59;99268.50;;;19.88;52.15
84795;BME280;75026;49.184;16.564;2024-02-14T23:26:00;99276.44;;;19.90;52.27
84795;BME280;75026;49.184;16.564;2024-02-14T23:31:01;99280.06;;;19.86;52.20
84795;BME280;75026;49.184;16.564;2024-02-14T23:36:02;99278.94;;;19.84;52.37
84795;BME280;75026;49.184;16.564;2024-02-14T23:41:03;99273.81;;;19.79;52.44
84795;BME280;75026;49.184;16.564;2024-02-14T23:46:05;99278.69;;;19.75;52.56
84795;BME280;75026;49.184;16.564;2024-02-14T23:51:06;99286.28;;;19.74;52.42
84795;BME280;75026;49.184;16.564;2024-02-14T23:56:07;99284.72;;;19.73;52.34
